sensor_id;sensor_type;location;lat;lon;timestamp;temperature;humidity
5621;DHT22;2832;50.864;12.186;2022-07-05T00:00:30;25.30;75.90
5621;DHT22;2832;50.864;12.186;2022-07-05T00:03:01;25.20;75.80
5621;DHT22;2832;50.864;12.186;2022-07-05T00:05:31;25.30;75.80
5621;DHT22;2832;50.864;12.186;2022-07-05T00:07:58;25.20;76.00
5621;DHT22;2832;50.864;12.186;2022-07-05T00:10:27;25.20;76.20
5621;DHT22;2832;50.864;12.186;2022-07-05T00:12:56;25.20;76.20
5621;DHT22;2832;50.864;12.186;2022-07-05T00:15:23;25.10;76.30
5621;DHT22;2832;50.864;12.186;2022-07-05T00:17:51;25.10;76.50
5621;DHT22;2832;50.864;12.186;2022-07-05T00:20:22;25.10;76.60
5621;DHT22;2832;50.864;12.186;2022-07-05T00:22:50;25.00;76.70
5621;DHT22;2832;50.864;12.186;2022-07-05T00:25:18;25.00;76.70
5621;DHT22;2832;50.864;12.186;2022-07-05T00:27:47;25.00;76.80
5621;DHT22;2832;50.864;12.186;2022-07-05T00:30:15;25.00;76.90
5621;DHT22;2832;50.864;12.186;2022-07-05T00:32:43;25.00;77.10
5621;DHT22;2832;50.864;12.186;2022-07-05T00:35:10;25.00;77.30
5621;DHT22;2832;50.864;12.186;2022-07-05T00:37:38;24.90;77.30
5621;DHT22;2832;50.864;12.186;2022-07-05T00:40:07;24.90;78.10
5621;DHT22;2832;50.864;12.186;2022-07-05T00:42:35;24.90;77.60
5621;DHT22;2832;50.864;12.186;2022-07-05T00:45:05;24.90;77.70
5621;DHT22;2832;50.864;12.186;2022-07-05T00:47:33;24.90;77.80
5621;DHT22;2832;50.864;12.186;2022-07-05T00:50:01;24.80;77.70
5621;DHT22;2832;50.864;12.186;2022-07-05T00:52:29;24.80;77.90
5621;DHT22;2832;50.864;12.186;2022-07-05T00:54:57;24.80;78.60
5621;DHT22;2832;50.864;12.186;2022-07-05T00:57:26;24.80;77.80
5621;DHT22;2832;50.864;12.186;2022-07-05T00:59:54;24.70;77.80
5621;DHT22;2832;50.864;12.186;2022-07-05T01:02:23;24.70;77.80
5621;DHT22;2832;50.864;12.186;2022-07-05T01:04:51;24.70;77.80
5621;DHT22;2832;50.864;12.186;2022-07-05T01:07:20;24.70;77.80
5621;DHT22;2832;50.864;12.186;2022-07-05T01:09:48;24.60;77.90
5621;DHT22;2832;50.864;12.186;2022-07-05T01:12:16;24.60;78.00
5621;DHT22;2832;50.864;12.186;2022-07-05T01:14:45;24.60;78.00
5621;DHT22;2832;50.864;12.186;2022-07-05T01:17:12;24.60;78.10
5621;DHT22;2832;50.864;12.186;2022-07-05T01:19:41;24.60;78.20
5621;DHT22;2832;50.864;12.186;2022-07-05T01:22:15;24.60;78.20
5621;DHT22;2832;50.864;12.186;2022-07-05T01:24:45;24.50;78.20
5621;DHT22;2832;50.864;12.186;2022-07-05T01:27:14;24.50;78.20
5621;DHT22;2832;50.864;12.186;2022-07-05T01:29:41;24.50;78.30
5621;DHT22;2832;50.864;12.186;2022-07-05T01:32:09;24.50;78.40
5621;DHT22;2832;50.864;12.186;2022-07-05T01:34:38;24.50;78.40
5621;DHT22;2832;50.864;12.186;2022-07-05T01:37:06;24.40;78.50
5621;DHT22;2832;50.864;12.186;2022-07-05T01:39:34;24.40;78.50
5621;DHT22;2832;50.864;12.186;2022-07-05T01:42:04;24.40;78.50
5621;DHT22;2832;50.864;12.186;2022-07-05T01:44:32;24.40;78.70
5621;DHT22;2832;50.864;12.186;2022-07-05T01:47:04;24.40;78.70
5621;DHT22;2832;50.864;12.186;2022-07-05T01:49:40;24.30;78.70
5621;DHT22;2832;50.864;12.186;2022-07-05T01:52:10;24.30;78.90
5621;DHT22;2832;50.864;12.186;2022-07-05T01:54:38;24.30;79.00
5621;DHT22;2832;50.864;12.186;2022-07-05T01:57:08;24.30;79.10
5621;DHT22;2832;50.864;12.186;2022-07-05T01:59:36;24.30;78.90
5621;DHT22;2832;50.864;12.186;2022-07-05T02:02:06;24.30;79.00
5621;DHT22;2832;50.864;12.186;2022-07-05T02:04:34;24.20;78.90
5621;DHT22;2832;50.864;12.186;2022-07-05T02:07:04;24.20;78.90
5621;DHT22;2832;50.864;12.186;2022-07-05T02:09:32;24.20;78.90
5621;DHT22;2832;50.864;12.186;2022-07-05T02:12:01;24.20;78.90
5621;DHT22;2832;50.864;12.186;2022-07-05T02:14:30;24.20;78.90
5621;DHT22;2832;50.864;12.186;2022-07-05T02:16:58;24.10;78.90
5621;DHT22;2832;50.864;12.186;2022-07-05T02:19:25;24.10;78.90
5621;DHT22;2832;50.864;12.186;2022-07-05T02:21:54;24.10;79.00
5621;DHT22;2832;50.864;12.186;2022-07-05T02:24:21;24.10;79.10
5621;DHT22;2832;50.864;12.186;2022-07-05T02:26:49;24.10;79.10
5621;DHT22;2832;50.864;12.186;2022-07-05T02:29:17;24.00;79.00
5621;DHT22;2832;50.864;12.186;2022-07-05T02:31:46;24.10;79.00
5621;DHT22;2832;50.864;12.186;2022-07-05T02:34:14;24.00;79.10
5621;DHT22;2832;50.864;12.186;2022-07-05T02:36:41;24.00;79.00
5621;DHT22;2832;50.864;12.186;2022-07-05T02:39:09;24.00;79.00
5621;DHT22;2832;50.864;12.186;2022-07-05T02:41:36;24.00;79.10
5621;DHT22;2832;50.864;12.186;2022-07-05T02:44:04;24.00;79.20
5621;DHT22;2832;50.864;12.186;2022-07-05T02:46:32;23.90;79.10
5621;DHT22;2832;50.864;12.186;2022-07-05T02:49:01;23.90;79.20
5621;DHT22;2832;50.864;12.186;2022-07-05T02:51:29;23.90;79.20
5621;DHT22;2832;50.864;12.186;2022-07-05T02:53:56;23.90;79.20
5621;DHT22;2832;50.864;12.186;2022-07-05T02:56:25;23.90;79.30
5621;DHT22;2832;50.864;12.186;2022-07-05T02:58:52;23.90;79.30
5621;DHT22;2832;50.864;12.186;2022-07-05T03:01:20;23.80;79.30
5621;DHT22;2832;50.864;12.186;2022-07-05T03:03:48;23.80;79.30
5621;DHT22;2832;50.864;12.186;2022-07-05T03:06:17;23.80;79.30
5621;DHT22;2832;50.864;12.186;2022-07-05T03:08:44;23.80;79.30
5621;DHT22;2832;50.864;12.186;2022-07-05T03:11:12;23.70;79.30
5621;DHT22;2832;50.864;12.186;2022-07-05T03:13:39;23.80;79.30
5621;DHT22;2832;50.864;12.186;2022-07-05T03:16:09;23.80;79.20
5621;DHT22;2832;50.864;12.186;2022-07-05T03:18:37;23.70;79.20
5621;DHT22;2832;50.864;12.186;2022-07-05T03:21:05;23.70;79.30
5621;DHT22;2832;50.864;12.186;2022-07-05T03:23:34;23.70;79.30
5621;DHT22;2832;50.864;12.186;2022-07-05T03:26:02;23.60;79.30
5621;DHT22;2832;50.864;12.186;2022-07-05T03:28:30;23.60;79.50
5621;DHT22;2832;50.864;12.186;2022-07-05T03:30:58;23.60;79.20
5621;DHT22;2832;50.864;12.186;2022-07-05T03:33:25;23.60;79.20
5621;DHT22;2832;50.864;12.186;2022-07-05T03:35:53;23.50;79.10
5621;DHT22;2832;50.864;12.186;2022-07-05T03:38:21;23.40;79.40
5621;DHT22;2832;50.864;12.186;2022-07-05T03:40:50;23.20;79.60
5621;DHT22;2832;50.864;12.186;2022-07-05T03:43:18;23.10;79.90
5621;DHT22;2832;50.864;12.186;2022-07-05T03:45:46;22.90;80.20
5621;DHT22;2832;50.864;12.186;2022-07-05T03:48:13;22.80;80.40
5621;DHT22;2832;50.864;12.186;2022-07-05T03:50:41;22.80;80.70
5621;DHT22;2832;50.864;12.186;2022-07-05T03:53:09;22.70;80.70
5621;DHT22;2832;50.864;12.186;2022-07-05T03:55:36;22.60;80.80
5621;DHT22;2832;50.864;12.186;2022-07-05T03:58:05;22.60;81.10
5621;DHT22;2832;50.864;12.186;2022-07-05T04:00:33;22.50;81.20
5621;DHT22;2832;50.864;12.186;2022-07-05T04:03:01;22.50;81.20
5621;DHT22;2832;50.864;12.186;2022-07-05T04:05:29;22.40;81.30
5621;DHT22;2832;50.864;12.186;2022-07-05T04:07:56;22.30;81.30
5621;DHT22;2832;50.864;12.186;2022-07-05T04:10:25;22.30;81.60
5621;DHT22;2832;50.864;12.186;2022-07-05T04:12:54;22.20;81.50
5621;DHT22;2832;50.864;12.186;2022-07-05T04:15:23;22.20;81.40
5621;DHT22;2832;50.864;12.186;2022-07-05T04:17:53;22.20;81.60
5621;DHT22;2832;50.864;12.186;2022-07-05T04:20:22;22.20;81.50
5621;DHT22;2832;50.864;12.186;2022-07-05T04:22:51;22.20;81.60
5621;DHT22;2832;50.864;12.186;2022-07-05T04:25:19;22.20;81.50
5621;DHT22;2832;50.864;12.186;2022-07-05T04:27:47;22.30;81.80
5621;DHT22;2832;50.864;12.186;2022-07-05T04:30:16;22.20;82.50
5621;DHT22;2832;50.864;12.186;2022-07-05T04:32:47;22.20;82.10
5621;DHT22;2832;50.864;12.186;2022-07-05T04:35:15;22.20;82.20
5621;DHT22;2832;50.864;12.186;2022-07-05T04:37:43;22.20;82.20
5621;DHT22;2832;50.864;12.186;2022-07-05T04:40:13;22.20;82.30
5621;DHT22;2832;50.864;12.186;2022-07-05T04:42:41;22.20;82.30
5621;DHT22;2832;50.864;12.186;2022-07-05T04:45:09;22.20;82.30
5621;DHT22;2832;50.864;12.186;2022-07-05T04:47:36;22.20;82.20
5621;DHT22;2832;50.864;12.186;2022-07-05T04:50:06;22.20;82.30
5621;DHT22;2832;50.864;12.186;2022-07-05T04:52:34;22.10;82.40
5621;DHT22;2832;50.864;12.186;2022-07-05T04:55:03;22.10;82.60
5621;DHT22;2832;50.864;12.186;2022-07-05T04:57:36;22.10;82.70
5621;DHT22;2832;50.864;12.186;2022-07-05T05:00:05;22.10;82.60
5621;DHT22;2832;50.864;12.186;2022-07-05T05:02:33;22.10;82.70
5621;DHT22;2832;50.864;12.186;2022-07-05T05:05:01;22.10;83.10
5621;DHT22;2832;50.864;12.186;2022-07-05T05:07:33;22.10;83.20
5621;DHT22;2832;50.864;12.186;2022-07-05T05:10:05;22.10;83.20
5621;DHT22;2832;50.864;12.186;2022-07-05T05:12:33;22.10;83.20
5621;DHT22;2832;50.864;12.186;2022-07-05T05:15:01;22.10;83.00
5621;DHT22;2832;50.864;12.186;2022-07-05T05:17:34;22.10;83.10
5621;DHT22;2832;50.864;12.186;2022-07-05T05:20:05;22.10;83.40
5621;DHT22;2832;50.864;12.186;2022-07-05T05:22:36;22.10;83.50
5621;DHT22;2832;50.864;12.186;2022-07-05T05:25:05;22.20;83.90
5621;DHT22;2832;50.864;12.186;2022-07-05T05:27:34;22.20;83.80
5621;DHT22;2832;50.864;12.186;2022-07-05T05:30:02;22.20;83.70
5621;DHT22;2832;50.864;12.186;2022-07-05T05:32:31;22.30;83.70
5621;DHT22;2832;50.864;12.186;2022-07-05T05:34:58;22.30;83.50
5621;DHT22;2832;50.864;12.186;2022-07-05T05:37:26;22.30;83.50
5621;DHT22;2832;50.864;12.186;2022-07-05T05:39:56;22.30;83.70
5621;DHT22;2832;50.864;12.186;2022-07-05T05:42:24;22.30;83.60
5621;DHT22;2832;50.864;12.186;2022-07-05T05:44:52;22.40;83.50
5621;DHT22;2832;50.864;12.186;2022-07-05T05:47:19;22.40;83.60
5621;DHT22;2832;50.864;12.186;2022-07-05T05:49:47;22.40;83.60
5621;DHT22;2832;50.864;12.186;2022-07-05T05:52:15;22.40;83.60
5621;DHT22;2832;50.864;12.186;2022-07-05T05:54:42;22.40;83.70
5621;DHT22;2832;50.864;12.186;2022-07-05T05:57:12;22.50;83.80
5621;DHT22;2832;50.864;12.186;2022-07-05T05:59:40;22.50;83.70
5621;DHT22;2832;50.864;12.186;2022-07-05T06:02:07;22.50;83.70
5621;DHT22;2832;50.864;12.186;2022-07-05T06:04:35;22.50;83.50
5621;DHT22;2832;50.864;12.186;2022-07-05T06:07:03;22.50;83.10
5621;DHT22;2832;50.864;12.186;2022-07-05T06:09:31;22.60;83.00
5621;DHT22;2832;50.864;12.186;2022-07-05T06:11:59;22.60;83.10
5621;DHT22;2832;50.864;12.186;2022-07-05T06:14:28;22.60;83.30
5621;DHT22;2832;50.864;12.186;2022-07-05T06:16:55;22.60;82.70
5621;DHT22;2832;50.864;12.186;2022-07-05T06:19:23;22.60;82.90
5621;DHT22;2832;50.864;12.186;2022-07-05T06:21:51;22.60;83.30
5621;DHT22;2832;50.864;12.186;2022-07-05T06:24:18;22.70;83.60
5621;DHT22;2832;50.864;12.186;2022-07-05T06:26:46;22.80;83.20
5621;DHT22;2832;50.864;12.186;2022-07-05T06:29:14;22.80;83.00
5621;DHT22;2832;50.864;12.186;2022-07-05T06:31:43;22.80;84.00
5621;DHT22;2832;50.864;12.186;2022-07-05T06:34:11;22.80;83.70
5621;DHT22;2832;50.864;12.186;2022-07-05T06:36:39;22.80;83.90
5621;DHT22;2832;50.864;12.186;2022-07-05T06:39:07;22.80;84.70
5621;DHT22;2832;50.864;12.186;2022-07-05T06:41:35;22.80;84.30
5621;DHT22;2832;50.864;12.186;2022-07-05T06:44:04;22.80;83.60
5621;DHT22;2832;50.864;12.186;2022-07-05T06:46:36;22.80;82.10
5621;DHT22;2832;50.864;12.186;2022-07-05T06:49:12;22.90;84.80
5621;DHT22;2832;50.864;12.186;2022-07-05T06:51:41;22.90;85.00
5621;DHT22;2832;50.864;12.186;2022-07-05T06:54:09;22.90;84.50
5621;DHT22;2832;50.864;12.186;2022-07-05T06:56:37;22.90;82.40
5621;DHT22;2832;50.864;12.186;2022-07-05T06:59:05;23.00;82.40
5621;DHT22;2832;50.864;12.186;2022-07-05T07:01:33;22.80;81.20
5621;DHT22;2832;50.864;12.186;2022-07-05T07:04:00;22.80;83.10
5621;DHT22;2832;50.864;12.186;2022-07-05T07:06:32;22.80;81.70
5621;DHT22;2832;50.864;12.186;2022-07-05T07:09:01;22.80;83.80
5621;DHT22;2832;50.864;12.186;2022-07-05T07:11:48;22.80;81.50
5621;DHT22;2832;50.864;12.186;2022-07-05T07:14:16;22.70;83.30
5621;DHT22;2832;50.864;12.186;2022-07-05T07:16:44;22.80;85.70
5621;DHT22;2832;50.864;12.186;2022-07-05T07:19:11;22.80;85.00
5621;DHT22;2832;50.864;12.186;2022-07-05T07:21:43;22.90;84.60
5621;DHT22;2832;50.864;12.186;2022-07-05T07:24:11;22.90;85.50
5621;DHT22;2832;50.864;12.186;2022-07-05T07:26:39;23.00;84.10
5621;DHT22;2832;50.864;12.186;2022-07-05T07:29:25;23.00;85.00
5621;DHT22;2832;50.864;12.186;2022-07-05T07:31:52;23.00;87.50
5621;DHT22;2832;50.864;12.186;2022-07-05T07:34:20;23.00;83.20
5621;DHT22;2832;50.864;12.186;2022-07-05T07:36:50;23.00;83.20
5621;DHT22;2832;50.864;12.186;2022-07-05T07:39:17;23.00;83.70
5621;DHT22;2832;50.864;12.186;2022-07-05T07:41:48;23.10;86.20
5621;DHT22;2832;50.864;12.186;2022-07-05T07:44:16;23.10;88.30
5621;DHT22;2832;50.864;12.186;2022-07-05T07:46:44;23.30;89.70
5621;DHT22;2832;50.864;12.186;2022-07-05T07:49:12;23.40;88.80
5621;DHT22;2832;50.864;12.186;2022-07-05T07:51:40;23.30;83.00
5621;DHT22;2832;50.864;12.186;2022-07-05T07:54:10;23.10;82.20
5621;DHT22;2832;50.864;12.186;2022-07-05T07:56:38;23.10;81.90
5621;DHT22;2832;50.864;12.186;2022-07-05T07:59:07;23.00;83.30
5621;DHT22;2832;50.864;12.186;2022-07-05T08:01:34;23.10;87.70
5621;DHT22;2832;50.864;12.186;2022-07-05T08:04:02;23.10;86.40
5621;DHT22;2832;50.864;12.186;2022-07-05T08:06:30;23.20;84.80
5621;DHT22;2832;50.864;12.186;2022-07-05T08:08:58;23.30;85.70
5621;DHT22;2832;50.864;12.186;2022-07-05T08:11:27;23.30;85.70
5621;DHT22;2832;50.864;12.186;2022-07-05T08:13:55;23.30;85.10
5621;DHT22;2832;50.864;12.186;2022-07-05T08:16:24;23.30;86.00
5621;DHT22;2832;50.864;12.186;2022-07-05T08:18:51;23.40;85.30
5621;DHT22;2832;50.864;12.186;2022-07-05T08:21:36;23.30;84.80
5621;DHT22;2832;50.864;12.186;2022-07-05T08:24:07;23.40;84.00
5621;DHT22;2832;50.864;12.186;2022-07-05T08:26:36;23.40;84.30
5621;DHT22;2832;50.864;12.186;2022-07-05T08:29:05;23.30;83.10
5621;DHT22;2832;50.864;12.186;2022-07-05T08:31:35;23.30;83.50
5621;DHT22;2832;50.864;12.186;2022-07-05T08:34:03;23.30;82.00
5621;DHT22;2832;50.864;12.186;2022-07-05T08:36:31;23.30;82.70
5621;DHT22;2832;50.864;12.186;2022-07-05T08:38:59;23.30;78.80
5621;DHT22;2832;50.864;12.186;2022-07-05T08:41:29;23.20;78.90
5621;DHT22;2832;50.864;12.186;2022-07-05T08:44:00;23.20;79.60
5621;DHT22;2832;50.864;12.186;2022-07-05T08:46:31;23.20;81.50
5621;DHT22;2832;50.864;12.186;2022-07-05T08:48:59;23.30;80.60
5621;DHT22;2832;50.864;12.186;2022-07-05T08:51:28;23.30;85.20
5621;DHT22;2832;50.864;12.186;2022-07-05T08:53:56;23.30;83.40
5621;DHT22;2832;50.864;12.186;2022-07-05T08:56:24;23.40;81.10
5621;DHT22;2832;50.864;12.186;2022-07-05T08:58:52;23.40;77.70
5621;DHT22;2832;50.864;12.186;2022-07-05T09:01:25;23.30;76.10
5621;DHT22;2832;50.864;12.186;2022-07-05T09:03:53;23.40;78.80
5621;DHT22;2832;50.864;12.186;2022-07-05T09:06:24;23.50;77.40
5621;DHT22;2832;50.864;12.186;2022-07-05T09:08:54;23.40;80.10
5621;DHT22;2832;50.864;12.186;2022-07-05T09:11:24;23.50;77.30
5621;DHT22;2832;50.864;12.186;2022-07-05T09:13:52;23.50;75.60
5621;DHT22;2832;50.864;12.186;2022-07-05T09:16:21;23.30;75.80
5621;DHT22;2832;50.864;12.186;2022-07-05T09:18:50;23.40;78.50
5621;DHT22;2832;50.864;12.186;2022-07-05T09:21:19;23.40;81.00
5621;DHT22;2832;50.864;12.186;2022-07-05T09:23:54;23.50;74.40
5621;DHT22;2832;50.864;12.186;2022-07-05T09:26:31;23.40;74.00
5621;DHT22;2832;50.864;12.186;2022-07-05T09:28:59;23.50;76.70
5621;DHT22;2832;50.864;12.186;2022-07-05T09:31:30;23.30;73.30
5621;DHT22;2832;50.864;12.186;2022-07-05T09:34:05;23.40;74.10
5621;DHT22;2832;50.864;12.186;2022-07-05T09:36:52;23.50;80.50
5621;DHT22;2832;50.864;12.186;2022-07-05T09:39:38;23.40;75.60
5621;DHT22;2832;50.864;12.186;2022-07-05T09:42:13;23.50;74.90
5621;DHT22;2832;50.864;12.186;2022-07-05T09:44:45;23.50;77.00
5621;DHT22;2832;50.864;12.186;2022-07-05T09:47:15;23.60;73.80
5621;DHT22;2832;50.864;12.186;2022-07-05T09:49:44;23.60;79.10
5621;DHT22;2832;50.864;12.186;2022-07-05T09:52:26;23.60;73.90
5621;DHT22;2832;50.864;12.186;2022-07-05T09:55:02;23.60;74.70
5621;DHT22;2832;50.864;12.186;2022-07-05T09:57:31;23.70;75.30
5621;DHT22;2832;50.864;12.186;2022-07-05T09:59:59;23.80;73.90
5621;DHT22;2832;50.864;12.186;2022-07-05T10:02:41;23.80;79.70
5621;DHT22;2832;50.864;12.186;2022-07-05T10:05:10;23.60;73.20
5621;DHT22;2832;50.864;12.186;2022-07-05T10:07:40;23.50;73.20
5621;DHT22;2832;50.864;12.186;2022-07-05T10:10:08;23.40;73.30
5621;DHT22;2832;50.864;12.186;2022-07-05T10:12:37;23.30;73.30
5621;DHT22;2832;50.864;12.186;2022-07-05T10:15:08;23.50;77.80
5621;DHT22;2832;50.864;12.186;2022-07-05T10:17:40;23.50;74.70
5621;DHT22;2832;50.864;12.186;2022-07-05T10:20:24;23.60;73.90
5621;DHT22;2832;50.864;12.186;2022-07-05T10:22:53;23.70;79.20
5621;DHT22;2832;50.864;12.186;2022-07-05T10:25:23;23.80;80.50
5621;DHT22;2832;50.864;12.186;2022-07-05T10:27:51;23.80;82.90
5621;DHT22;2832;50.864;12.186;2022-07-05T10:30:22;23.90;82.40
5621;DHT22;2832;50.864;12.186;2022-07-05T10:32:52;23.90;79.20
5621;DHT22;2832;50.864;12.186;2022-07-05T10:35:20;23.90;73.20
5621;DHT22;2832;50.864;12.186;2022-07-05T10:37:49;23.80;73.50
5621;DHT22;2832;50.864;12.186;2022-07-05T10:40:17;23.80;76.00
5621;DHT22;2832;50.864;12.186;2022-07-05T10:42:48;23.80;78.10
5621;DHT22;2832;50.864;12.186;2022-07-05T10:45:27;23.90;83.90
5621;DHT22;2832;50.864;12.186;2022-07-05T10:48:23;24.00;80.30
5621;DHT22;2832;50.864;12.186;2022-07-05T10:50:52;24.10;85.50
5621;DHT22;2832;50.864;12.186;2022-07-05T10:53:22;24.10;82.50
5621;DHT22;2832;50.864;12.186;2022-07-05T10:55:55;24.10;81.50
5621;DHT22;2832;50.864;12.186;2022-07-05T10:58:31;24.10;83.00
5621;DHT22;2832;50.864;12.186;2022-07-05T11:01:33;24.10;76.70
5621;DHT22;2832;50.864;12.186;2022-07-05T11:04:20;24.20;75.30
5621;DHT22;2832;50.864;12.186;2022-07-05T11:06:48;24.30;76.50
5621;DHT22;2832;50.864;12.186;2022-07-05T11:09:18;24.40;77.70
5621;DHT22;2832;50.864;12.186;2022-07-05T11:11:47;24.50;71.90
5621;DHT22;2832;50.864;12.186;2022-07-05T11:14:33;24.30;71.60
5621;DHT22;2832;50.864;12.186;2022-07-05T11:17:19;24.20;72.40
5621;DHT22;2832;50.864;12.186;2022-07-05T11:20:08;24.10;71.50
5621;DHT22;2832;50.864;12.186;2022-07-05T11:22:38;24.10;74.30
5621;DHT22;2832;50.864;12.186;2022-07-05T11:25:09;24.20;71.50
5621;DHT22;2832;50.864;12.186;2022-07-05T11:27:59;24.10;71.30
5621;DHT22;2832;50.864;12.186;2022-07-05T11:30:28;24.10;71.00
5621;DHT22;2832;50.864;12.186;2022-07-05T11:32:58;24.10;71.00
5621;DHT22;2832;50.864;12.186;2022-07-05T11:35:32;24.20;70.60
5621;DHT22;2832;50.864;12.186;2022-07-05T11:38:03;24.20;77.80
5621;DHT22;2832;50.864;12.186;2022-07-05T11:40:34;24.30;79.80
5621;DHT22;2832;50.864;12.186;2022-07-05T11:43:02;24.30;82.90
5621;DHT22;2832;50.864;12.186;2022-07-05T11:45:33;24.20;80.10
5621;DHT22;2832;50.864;12.186;2022-07-05T11:48:01;24.20;73.80
5621;DHT22;2832;50.864;12.186;2022-07-05T11:50:33;24.20;72.10
5621;DHT22;2832;50.864;12.186;2022-07-05T11:53:02;24.20;71.10
5621;DHT22;2832;50.864;12.186;2022-07-05T11:55:30;24.30;77.00
5621;DHT22;2832;50.864;12.186;2022-07-05T11:57:58;24.30;72.20
5621;DHT22;2832;50.864;12.186;2022-07-05T12:00:28;24.40;71.20
5621;DHT22;2832;50.864;12.186;2022-07-05T12:02:56;24.50;79.10
5621;DHT22;2832;50.864;12.186;2022-07-05T12:05:31;24.50;81.10
5621;DHT22;2832;50.864;12.186;2022-07-05T12:07:59;24.60;79.80
5621;DHT22;2832;50.864;12.186;2022-07-05T12:10:29;24.60;74.80
5621;DHT22;2832;50.864;12.186;2022-07-05T12:13:14;24.70;83.70
5621;DHT22;2832;50.864;12.186;2022-07-05T12:15:42;24.70;78.30
5621;DHT22;2832;50.864;12.186;2022-07-05T12:18:17;24.80;71.20
5621;DHT22;2832;50.864;12.186;2022-07-05T12:20:49;24.90;69.70
5621;DHT22;2832;50.864;12.186;2022-07-05T12:23:26;25.00;69.80
5621;DHT22;2832;50.864;12.186;2022-07-05T12:25:54;25.00;71.50
5621;DHT22;2832;50.864;12.186;2022-07-05T12:28:26;25.00;67.80
5621;DHT22;2832;50.864;12.186;2022-07-05T12:30:55;24.90;69.90
5621;DHT22;2832;50.864;12.186;2022-07-05T12:33:28;24.90;67.30
5621;DHT22;2832;50.864;12.186;2022-07-05T12:36:00;24.70;66.80
5621;DHT22;2832;50.864;12.186;2022-07-05T12:38:29;24.80;66.40
5621;DHT22;2832;50.864;12.186;2022-07-05T12:40:58;24.80;68.30
5621;DHT22;2832;50.864;12.186;2022-07-05T12:43:26;24.80;74.00
5621;DHT22;2832;50.864;12.186;2022-07-05T12:46:04;24.70;78.90
5621;DHT22;2832;50.864;12.186;2022-07-05T12:48:34;24.70;68.60
5621;DHT22;2832;50.864;12.186;2022-07-05T12:51:04;24.60;69.20
5621;DHT22;2832;50.864;12.186;2022-07-05T12:53:32;24.60;68.30
5621;DHT22;2832;50.864;12.186;2022-07-05T12:56:23;24.70;68.10
5621;DHT22;2832;50.864;12.186;2022-07-05T12:59:10;24.80;69.70
5621;DHT22;2832;50.864;12.186;2022-07-05T13:01:41;24.90;69.50
5621;DHT22;2832;50.864;12.186;2022-07-05T13:04:10;24.90;69.60
5621;DHT22;2832;50.864;12.186;2022-07-05T13:06:47;24.90;68.80
5621;DHT22;2832;50.864;12.186;2022-07-05T13:09:29;24.80;77.80
5621;DHT22;2832;50.864;12.186;2022-07-05T13:12:08;24.80;72.90
5621;DHT22;2832;50.864;12.186;2022-07-05T13:14:38;24.80;68.70
5621;DHT22;2832;50.864;12.186;2022-07-05T13:17:07;24.80;68.00
5621;DHT22;2832;50.864;12.186;2022-07-05T13:19:35;24.80;68.20
5621;DHT22;2832;50.864;12.186;2022-07-05T13:22:06;24.90;71.00
5621;DHT22;2832;50.864;12.186;2022-07-05T13:24:35;24.90;67.60
5621;DHT22;2832;50.864;12.186;2022-07-05T13:27:04;24.90;69.10
5621;DHT22;2832;50.864;12.186;2022-07-05T13:29:32;24.90;67.20
5621;DHT22;2832;50.864;12.186;2022-07-05T13:32:00;24.90;72.60
5621;DHT22;2832;50.864;12.186;2022-07-05T13:34:28;24.90;76.10
5621;DHT22;2832;50.864;12.186;2022-07-05T13:36:57;24.90;76.80
5621;DHT22;2832;50.864;12.186;2022-07-05T13:39:26;24.90;70.90
5621;DHT22;2832;50.864;12.186;2022-07-05T13:41:55;24.90;77.30
5621;DHT22;2832;50.864;12.186;2022-07-05T13:44:23;24.90;77.70
5621;DHT22;2832;50.864;12.186;2022-07-05T13:46:51;24.90;70.60
5621;DHT22;2832;50.864;12.186;2022-07-05T13:49:19;24.90;66.90
5621;DHT22;2832;50.864;12.186;2022-07-05T13:51:47;24.90;67.20
5621;DHT22;2832;50.864;12.186;2022-07-05T13:54:15;24.90;72.90
5621;DHT22;2832;50.864;12.186;2022-07-05T13:56:45;24.90;67.80
5621;DHT22;2832;50.864;12.186;2022-07-05T13:59:13;25.00;67.10
5621;DHT22;2832;50.864;12.186;2022-07-05T14:01:43;25.10;67.40
5621;DHT22;2832;50.864;12.186;2022-07-05T14:04:10;25.10;66.20
5621;DHT22;2832;50.864;12.186;2022-07-05T14:06:38;25.20;65.80
5621;DHT22;2832;50.864;12.186;2022-07-05T14:09:06;25.20;66.80
5621;DHT22;2832;50.864;12.186;2022-07-05T14:11:35;25.30;69.20
5621;DHT22;2832;50.864;12.186;2022-07-05T14:14:04;25.30;65.60
5621;DHT22;2832;50.864;12.186;2022-07-05T14:16:32;25.30;71.00
5621;DHT22;2832;50.864;12.186;2022-07-05T14:19:00;25.20;65.70
5621;DHT22;2832;50.864;12.186;2022-07-05T14:21:27;25.20;65.30
5621;DHT22;2832;50.864;12.186;2022-07-05T14:23:57;25.20;67.80
5621;DHT22;2832;50.864;12.186;2022-07-05T14:26:25;25.20;64.80
5621;DHT22;2832;50.864;12.186;2022-07-05T14:28:53;25.20;71.20
5621;DHT22;2832;50.864;12.186;2022-07-05T14:31:23;25.20;66.50
5621;DHT22;2832;50.864;12.186;2022-07-05T14:33:50;25.30;70.40
5621;DHT22;2832;50.864;12.186;2022-07-05T14:36:18;25.30;72.20
5621;DHT22;2832;50.864;12.186;2022-07-05T14:38:46;25.30;74.90
5621;DHT22;2832;50.864;12.186;2022-07-05T14:41:13;25.30;65.80
5621;DHT22;2832;50.864;12.186;2022-07-05T14:43:42;25.30;64.20
5621;DHT22;2832;50.864;12.186;2022-07-05T14:46:10;25.30;63.80
5621;DHT22;2832;50.864;12.186;2022-07-05T14:48:45;25.40;71.00
5621;DHT22;2832;50.864;12.186;2022-07-05T14:51:14;25.40;74.30
5621;DHT22;2832;50.864;12.186;2022-07-05T14:53:42;25.40;73.60
5621;DHT22;2832;50.864;12.186;2022-07-05T14:56:12;25.30;66.10
5621;DHT22;2832;50.864;12.186;2022-07-05T14:58:43;25.30;66.50
5621;DHT22;2832;50.864;12.186;2022-07-05T15:01:11;25.40;63.00
5621;DHT22;2832;50.864;12.186;2022-07-05T15:03:39;25.50;63.10
5621;DHT22;2832;50.864;12.186;2022-07-05T15:06:08;25.50;65.80
5621;DHT22;2832;50.864;12.186;2022-07-05T15:08:38;25.50;61.80
5621;DHT22;2832;50.864;12.186;2022-07-05T15:11:05;25.60;61.80
5621;DHT22;2832;50.864;12.186;2022-07-05T15:13:33;25.60;62.50
5621;DHT22;2832;50.864;12.186;2022-07-05T15:16:01;25.60;62.60
5621;DHT22;2832;50.864;12.186;2022-07-05T15:18:30;25.60;61.80
5621;DHT22;2832;50.864;12.186;2022-07-05T15:20:57;25.60;67.10
5621;DHT22;2832;50.864;12.186;2022-07-05T15:23:26;25.50;64.80
5621;DHT22;2832;50.864;12.186;2022-07-05T15:25:55;25.50;62.30
5621;DHT22;2832;50.864;12.186;2022-07-05T15:28:24;25.50;61.20
5621;DHT22;2832;50.864;12.186;2022-07-05T15:30:52;25.50;60.70
5621;DHT22;2832;50.864;12.186;2022-07-05T15:33:21;25.40;61.80
5621;DHT22;2832;50.864;12.186;2022-07-05T15:35:54;25.40;61.70
5621;DHT22;2832;50.864;12.186;2022-07-05T15:38:24;25.40;64.00
5621;DHT22;2832;50.864;12.186;2022-07-05T15:40:54;25.40;65.60
5621;DHT22;2832;50.864;12.186;2022-07-05T15:43:22;25.40;71.50
5621;DHT22;2832;50.864;12.186;2022-07-05T15:45:53;25.30;70.70
5621;DHT22;2832;50.864;12.186;2022-07-05T15:48:20;25.30;71.80
5621;DHT22;2832;50.864;12.186;2022-07-05T15:50:48;25.30;72.20
5621;DHT22;2832;50.864;12.186;2022-07-05T15:53:16;25.30;71.40
5621;DHT22;2832;50.864;12.186;2022-07-05T15:55:45;25.20;72.20
5621;DHT22;2832;50.864;12.186;2022-07-05T15:58:14;25.30;72.60
5621;DHT22;2832;50.864;12.186;2022-07-05T16:00:42;25.20;72.30